Black Diamond, Canada
Current Conditions -  °F | °C
As of 1:00 AM on Friday 24 Oct 2014 (Local Time) from CYBW Reporting Station
Clear Clear  
Wind Chill: 31°   Ceiling: Unl
Heat Index: 39°   Visibility: 9mi
Dew Point: 27°   Wind: 15mph
Humidity: 61%   Direction: 290°WNW
Pressure: 29.68"   Gusts: NA
Location:  50.7°N, 114.23°W
Report Text: CYBW 240700Z AUTO 29013KT 9SM CLR 04/M03 A2968 RMK SLP065
Loading
Personal Weather Stations






























Interactive Weather Map
Tropical Storm Tracking
New forecast layout! Learn more

10-Day Weather Forecast

Advertisements
Track Severe Weather on mobile